createdAt,value
2019-05-10T00:01:12.578Z,4.42
2019-05-10T00:04:00.933Z,4.20
2019-05-10T00:06:49.417Z,3.90
2019-05-10T00:09:18.895Z,4.30
2019-05-10T00:12:08.272Z,4.40
2019-05-10T00:14:49.144Z,4.50
2019-05-10T00:17:23.807Z,5.28
2019-05-10T00:19:54.316Z,4.78
2019-05-10T00:22:24.827Z,5.28
2019-05-10T00:25:03.774Z,4.27
2019-05-10T00:27:27.616Z,4.42
2019-05-10T00:29:58.165Z,4.83
2019-05-10T00:32:28.662Z,4.60
2019-05-10T00:34:59.134Z,4.97
2019-05-10T00:37:29.662Z,5.00
2019-05-10T00:40:00.159Z,4.42
2019-05-10T00:42:30.644Z,4.90
2019-05-10T00:45:01.153Z,5.05
2019-05-10T00:47:31.655Z,5.40
2019-05-10T00:50:02.109Z,5.70
2019-05-10T00:52:32.625Z,5.87
2019-05-10T00:55:17.854Z,5.80
2019-05-10T00:57:35.352Z,5.03
2019-05-10T01:00:06.951Z,4.97
2019-05-10T01:02:37.397Z,5.70
2019-05-10T01:05:07.884Z,4.30
2019-05-10T01:07:38.377Z,3.70
2019-05-10T01:10:09.568Z,4.40
2019-05-10T01:12:40.041Z,5.33
2019-05-10T01:15:11.668Z,5.00
2019-05-10T01:17:42.167Z,5.15
2019-05-10T01:20:13.053Z,4.05
2019-05-10T01:22:43.494Z,5.40
2019-05-10T01:25:14.094Z,5.62
2019-05-10T01:27:44.565Z,6.50
2019-05-10T01:30:15.315Z,7.65
2019-05-10T01:32:45.887Z,6.70
2019-05-10T01:35:16.345Z,7.03
2019-05-10T01:37:46.835Z,7.03
2019-05-10T01:40:17.602Z,7.20
2019-05-10T01:42:48.087Z,6.53
2019-05-10T01:45:18.543Z,6.40
2019-05-10T01:47:49.065Z,5.30
2019-05-10T01:50:19.532Z,4.90
2019-05-10T01:52:49.971Z,4.10
2019-05-10T01:55:20.454Z,4.55
2019-05-10T01:57:50.934Z,4.10
2019-05-10T02:00:22.385Z,4.15
2019-05-10T02:02:52.890Z,4.10
2019-05-10T02:05:23.326Z,3.90
2019-05-10T02:07:53.800Z,4.33
2019-05-10T02:10:24.374Z,3.90
2019-05-10T02:12:54.821Z,3.83
2019-05-10T02:15:25.202Z,4.60
2019-05-10T02:17:55.750Z,4.78
2019-05-10T02:20:26.192Z,4.10
2019-05-10T02:22:56.618Z,5.40
2019-05-10T02:25:27.205Z,5.00
2019-05-10T02:27:57.662Z,4.17
2019-05-10T02:30:28.119Z,2.98
2019-05-10T02:32:58.618Z,2.25
2019-05-10T02:35:29.069Z,2.90
2019-05-10T02:37:59.483Z,4.10
2019-05-10T02:40:30.065Z,4.40
2019-05-10T02:43:00.529Z,4.40
2019-05-10T02:45:30.967Z,4.37
2019-05-10T02:48:01.662Z,5.30
2019-05-10T02:50:51.231Z,5.67
2019-05-10T02:53:21.834Z,5.40
2019-05-10T02:55:53.115Z,5.67
2019-05-10T02:58:23.882Z,5.30
2019-05-10T03:00:55.978Z,5.80
2019-05-10T03:03:29.357Z,6.25
2019-05-10T03:06:03.515Z,5.60
2019-05-10T03:08:48.736Z,6.03
2019-05-10T03:11:19.278Z,7.42
2019-05-10T03:13:52.450Z,6.20
2019-05-10T03:16:23.998Z,7.22
2019-05-10T03:18:54.567Z,6.95
2019-05-10T03:21:26.568Z,7.95
2019-05-10T03:23:57.099Z,9.93
2019-05-10T03:26:27.657Z,7.65
2019-05-10T03:28:58.099Z,8.40
2019-05-10T03:31:28.606Z,7.70
2019-05-10T03:33:59.241Z,11.33
2019-05-10T03:36:29.785Z,15.67
2019-05-10T03:39:00.329Z,15.60
2019-05-10T03:41:30.824Z,16.95
2019-05-10T03:44:01.415Z,16.75
2019-05-10T03:46:31.931Z,17.48
2019-05-10T03:49:02.436Z,18.50
2019-05-10T03:51:32.920Z,18.92
2019-05-10T03:54:03.436Z,13.58
2019-05-10T03:56:33.958Z,13.30
2019-05-10T03:59:04.498Z,12.13
2019-05-10T04:01:35.111Z,15.10
2019-05-10T04:04:09.505Z,15.72
2019-05-10T04:06:37.963Z,18.40
2019-05-10T04:09:08.561Z,19.57
2019-05-10T04:11:39.190Z,20.20
2019-05-10T04:14:09.714Z,20.33
2019-05-10T04:16:40.574Z,19.48
2019-05-10T04:19:11.154Z,15.87
2019-05-10T04:21:41.930Z,21.15
2019-05-10T04:24:12.748Z,22.60
2019-05-10T04:26:43.514Z,22.95
2019-05-10T04:29:14.109Z,22.40
2019-05-10T04:31:44.839Z,22.30
2019-05-10T04:34:15.403Z,22.55
2019-05-10T04:36:46.061Z,23.27
2019-05-10T04:39:16.596Z,23.55
2019-05-10T04:41:47.329Z,24.75
2019-05-10T04:44:18.122Z,24.95
2019-05-10T04:46:48.819Z,24.10
2019-05-10T04:49:19.522Z,23.83
2019-05-10T04:51:50.387Z,23.27
2019-05-10T04:54:20.988Z,23.57
2019-05-10T04:56:51.529Z,22.75
2019-05-10T04:59:22.067Z,22.02
2019-05-10T05:01:52.922Z,21.10
2019-05-10T05:04:23.486Z,21.42
2019-05-10T05:06:54.097Z,20.62
2019-05-10T05:09:24.927Z,22.37
2019-05-10T05:11:55.513Z,20.92
2019-05-10T05:14:26.027Z,21.95
2019-05-10T05:16:56.614Z,19.37
2019-05-10T05:19:27.131Z,20.85
2019-05-10T05:21:57.636Z,21.27
2019-05-10T05:24:28.182Z,21.93
2019-05-10T05:26:58.757Z,20.10
2019-05-10T05:29:29.311Z,19.52
2019-05-10T05:32:01.042Z,22.55
2019-05-10T05:34:32.371Z,21.90
2019-05-10T05:37:03.046Z,24.47
2019-05-10T05:39:33.642Z,23.07
2019-05-10T05:42:05.131Z,22.98
2019-05-10T05:44:35.739Z,25.15
2019-05-10T05:47:06.483Z,24.85
2019-05-10T05:49:37.109Z,25.05
2019-05-10T05:52:07.872Z,26.02
2019-05-10T05:54:38.548Z,25.13
2019-05-10T05:57:09.259Z,28.45
2019-05-10T05:59:40.035Z,26.83
2019-05-10T06:02:10.814Z,25.60
2019-05-10T06:04:46.205Z,26.12
2019-05-10T06:07:14.319Z,25.82
2019-05-10T06:09:44.946Z,25.45
2019-05-10T06:12:15.494Z,25.97
2019-05-10T06:14:49.935Z,25.65
2019-05-10T06:17:18.351Z,25.72
2019-05-10T06:19:48.916Z,23.60
2019-05-10T06:22:19.670Z,24.90
2019-05-10T06:24:52.346Z,24.23
2019-05-10T06:27:22.524Z,23.75
2019-05-10T06:29:53.178Z,25.85
2019-05-10T06:32:23.763Z,22.90
2019-05-10T06:34:54.488Z,23.83
2019-05-10T06:37:25.152Z,23.92
2019-05-10T06:39:58.706Z,24.92
2019-05-10T06:42:34.560Z,26.70
2019-05-10T06:45:04.880Z,26.73
2019-05-10T06:47:34.353Z,27.75
2019-05-10T06:50:05.396Z,24.57
2019-05-10T06:52:35.792Z,23.85
2019-05-10T06:55:06.547Z,23.00
2019-05-10T06:57:37.172Z,21.80
2019-05-10T07:00:08.346Z,22.50
2019-05-10T07:02:39.040Z,22.13
2019-05-10T07:05:09.754Z,21.03
2019-05-10T07:07:45.234Z,21.80
2019-05-10T07:10:18.723Z,20.02
2019-05-10T07:12:45.455Z,20.30
2019-05-10T07:15:16.532Z,20.10
2019-05-10T07:17:47.519Z,20.30
2019-05-10T07:20:23.706Z,17.05
2019-05-10T07:22:50.513Z,16.65
2019-05-10T07:25:21.141Z,13.25
2019-05-10T07:27:51.759Z,13.32
2019-05-10T07:30:34.709Z,13.20
2019-05-10T07:33:05.456Z,13.25
2019-05-10T07:35:36.899Z,12.75
2019-05-10T07:38:07.962Z,13.25
2019-05-10T07:40:38.552Z,12.03
2019-05-10T07:43:09.224Z,11.90
2019-05-10T07:45:39.914Z,12.90
2019-05-10T07:48:10.558Z,13.35
2019-05-10T07:50:42.486Z,15.32
2019-05-10T07:53:16.397Z,14.27
2019-05-10T07:55:45.687Z,13.15
2019-05-10T07:58:16.257Z,13.10
2019-05-10T08:00:46.890Z,12.97
2019-05-10T08:03:23.368Z,12.18
2019-05-10T08:05:55.066Z,11.10
2019-05-10T08:08:22.295Z,10.90
2019-05-10T08:10:52.891Z,10.88
2019-05-10T08:13:25.123Z,10.83
2019-05-10T08:15:55.927Z,9.83
2019-05-10T08:18:26.691Z,10.75
2019-05-10T08:21:02.281Z,10.50
2019-05-10T08:23:29.616Z,10.00
2019-05-10T08:26:04.232Z,9.93
2019-05-10T08:28:36.056Z,11.80
2019-05-10T08:31:05.009Z,13.35
2019-05-10T08:33:35.581Z,11.20
2019-05-10T08:36:06.211Z,11.68
2019-05-10T08:38:39.764Z,12.15
2019-05-10T08:41:14.743Z,11.90
2019-05-10T08:43:43.093Z,11.90
2019-05-10T08:46:13.787Z,12.70
2019-05-10T08:48:50.310Z,12.90
2019-05-10T08:51:16.616Z,11.10
2019-05-10T08:53:52.370Z,10.10
2019-05-10T08:56:21.726Z,10.65
2019-05-10T08:58:53.614Z,10.70
2019-05-10T09:01:30.096Z,10.23
2019-05-10T09:04:02.004Z,10.35
2019-05-10T09:06:29.109Z,8.50
2019-05-10T09:09:06.001Z,6.70
2019-05-10T09:11:32.781Z,6.40
2019-05-10T09:14:03.482Z,6.37
2019-05-10T09:16:39.406Z,5.70
2019-05-10T09:19:06.139Z,6.47
2019-05-10T09:21:41.283Z,6.10
2019-05-10T09:24:08.833Z,4.70
2019-05-10T09:26:41.688Z,4.10
2019-05-10T09:29:12.105Z,4.28
2019-05-10T09:31:48.637Z,4.75
2019-05-10T09:34:15.149Z,5.28
2019-05-10T09:36:47.173Z,4.95
2019-05-10T09:39:21.758Z,5.50
2019-05-10T09:41:52.785Z,4.97
2019-05-10T09:44:22.967Z,5.00
2019-05-10T09:46:53.606Z,4.80
2019-05-10T09:49:24.117Z,3.83
2019-05-10T09:51:55.006Z,4.05
2019-05-10T09:54:29.590Z,3.95
2019-05-10T09:56:57.863Z,3.62
2019-05-10T09:59:28.338Z,3.83
2019-05-10T10:01:58.841Z,3.70
2019-05-10T10:04:29.462Z,3.60
2019-05-10T10:06:59.952Z,3.80
2019-05-10T10:09:37.286Z,4.17
2019-05-10T10:12:03.377Z,4.00
2019-05-10T10:14:39.345Z,3.85
2019-05-10T10:17:08.262Z,4.00
2019-05-10T10:19:40.595Z,4.13
2019-05-10T10:22:11.275Z,3.00
2019-05-10T10:24:42.861Z,2.95
2019-05-10T10:27:13.365Z,2.40
2019-05-10T10:29:43.879Z,2.02
2019-05-10T10:32:14.368Z,2.50
2019-05-10T10:34:44.891Z,2.00
2019-05-10T10:37:20.652Z,2.07
2019-05-10T10:43:44.467Z,1.40
2019-05-10T10:46:17.620Z,1.87
2019-05-10T10:48:49.193Z,1.50
2019-05-10T10:51:19.424Z,1.70
2019-05-10T10:53:49.892Z,1.40
2019-05-10T10:56:20.354Z,2.00
2019-05-10T10:58:50.873Z,1.60
2019-05-10T11:01:25.345Z,1.20
2019-05-10T11:03:53.600Z,1.30
2019-05-10T11:06:24.635Z,1.20
2019-05-10T11:08:55.144Z,1.47
2019-05-10T11:11:32.527Z,1.37
2019-05-10T11:14:04.201Z,1.80
2019-05-10T11:16:30.086Z,1.45
2019-05-10T11:19:03.837Z,1.67
2019-05-10T11:21:33.427Z,1.00
2019-05-10T11:24:04.286Z,1.10
2019-05-10T11:26:36.796Z,1.10
2019-05-10T11:29:07.041Z,1.30
2019-05-10T11:31:37.569Z,1.00
2019-05-10T11:34:08.059Z,1.40
2019-05-10T11:36:40.450Z,1.20
2019-05-10T11:39:23.178Z,1.92
2019-05-10T11:41:43.097Z,1.80
2019-05-10T11:44:13.653Z,1.90
2019-05-10T11:46:44.121Z,1.70
2019-05-10T11:49:14.685Z,2.40
2019-05-10T11:51:47.950Z,2.13
2019-05-10T11:54:17.573Z,1.62
2019-05-10T11:56:48.208Z,1.40
2019-05-10T11:59:21.644Z,2.05
2019-05-10T12:04:35.642Z,1.50
2019-05-10T12:06:55.389Z,2.02
2019-05-10T12:09:26.415Z,2.00
2019-05-10T12:11:57.162Z,2.20
2019-05-10T12:14:27.646Z,2.17
2019-05-10T12:16:58.212Z,1.80
2019-05-10T12:19:36.783Z,1.67
2019-05-10T12:22:04.723Z,1.70
2019-05-10T12:24:46.882Z,1.87
2019-05-10T12:26:18.268Z,2.00
2019-05-10T12:27:17.258Z,2.20
2019-05-10T12:29:37.753Z,1.87
2019-05-10T12:32:10.345Z,1.60
2019-05-10T12:34:41.112Z,1.90
2019-05-10T12:37:11.707Z,1.57
2019-05-10T12:39:42.204Z,1.40
2019-05-10T12:42:14.370Z,1.27
2019-05-10T12:44:47.914Z,1.10
2019-05-10T12:47:17.521Z,1.40
2019-05-10T12:49:48.021Z,1.00
2019-05-10T12:52:22.094Z,1.00
2019-05-10T12:54:50.825Z,1.50
2019-05-10T12:57:21.426Z,1.50
2019-05-10T12:59:51.965Z,1.07
2019-05-10T13:02:22.599Z,0.90
2019-05-10T13:04:54.376Z,0.93
2019-05-10T13:07:24.986Z,1.00
2019-05-10T13:10:02.567Z,1.20
2019-05-10T13:12:27.846Z,1.22
2019-05-10T13:14:58.464Z,1.17
2019-05-10T13:17:28.955Z,1.40
2019-05-10T13:20:00.642Z,1.10
2019-05-10T13:22:36.837Z,1.40
2019-05-10T13:25:03.505Z,1.52
2019-05-10T13:27:33.990Z,1.60
2019-05-10T13:30:04.884Z,1.27
2019-05-10T13:32:35.370Z,1.40
2019-05-10T13:35:06.313Z,1.20
2019-05-10T13:37:36.835Z,1.20
2019-05-10T13:40:08.577Z,1.20
2019-05-10T13:42:43.240Z,1.17
2019-05-10T13:45:11.482Z,1.00
2019-05-10T13:47:41.969Z,0.90
2019-05-10T13:50:14.286Z,1.27
2019-05-10T13:52:44.799Z,0.90
2019-05-10T13:55:15.305Z,0.90
2019-05-10T13:57:45.902Z,0.98
2019-05-10T14:00:17.315Z,1.00
2019-05-10T14:02:47.810Z,1.30
2019-05-10T14:05:19.951Z,1.27
2019-05-10T14:07:52.752Z,1.70
2019-05-10T14:10:25.117Z,0.90
2019-05-10T14:13:02.113Z,0.90
2019-05-10T14:15:27.444Z,1.80
2019-05-10T14:17:57.984Z,1.30
2019-05-10T14:20:28.526Z,1.20
2019-05-10T14:22:59.188Z,1.40
2019-05-10T14:25:36.465Z,1.90
2019-05-10T14:28:01.972Z,1.52
2019-05-10T14:30:35.387Z,1.42
2019-05-10T14:33:08.854Z,1.72
2019-05-10T14:35:38.213Z,1.90
2019-05-10T14:38:10.637Z,1.60
2019-05-10T14:40:41.045Z,2.17
2019-05-10T14:43:11.620Z,1.90
2019-05-10T14:45:42.194Z,2.00
2019-05-10T14:48:12.685Z,1.70
2019-05-10T14:50:46.476Z,1.55
2019-05-10T14:53:20.064Z,1.50
2019-05-10T14:55:47.599Z,1.70
2019-05-10T14:58:18.157Z,1.80
2019-05-10T15:00:48.758Z,1.50
2019-05-10T15:03:19.294Z,1.75
2019-05-10T15:05:55.566Z,1.75
2019-05-10T15:08:22.191Z,1.60
2019-05-10T15:10:52.743Z,1.70
2019-05-10T15:13:25.525Z,1.70
2019-05-10T15:15:55.530Z,1.37
2019-05-10T15:18:26.138Z,1.62
2019-05-10T15:20:56.644Z,1.50
2019-05-10T15:23:27.194Z,1.67
2019-05-10T15:26:10.705Z,1.30
2019-05-10T15:28:34.477Z,1.30
2019-05-10T15:31:02.360Z,1.50
2019-05-10T15:33:32.897Z,1.70
2019-05-10T15:36:03.427Z,1.60
2019-05-10T15:38:40.462Z,1.40
2019-05-10T15:41:06.290Z,1.47
2019-05-10T15:43:36.891Z,1.30
2019-05-10T15:46:07.486Z,1.62
2019-05-10T15:48:41.657Z,1.42
2019-05-10T15:51:11.325Z,1.85
2019-05-10T15:53:42.622Z,2.15
2019-05-10T15:56:13.150Z,1.52
2019-05-10T15:58:43.685Z,1.80
2019-05-10T16:01:14.770Z,1.75
2019-05-10T16:03:45.366Z,1.50
2019-05-10T16:06:15.879Z,1.60
2019-05-10T16:08:46.447Z,1.60
2019-05-10T16:11:18.741Z,2.00
2019-05-10T16:13:49.175Z,1.80
2019-05-10T16:16:19.837Z,1.50
2019-05-10T16:18:50.489Z,1.70
2019-05-10T16:21:21.138Z,1.30
2019-05-10T16:23:51.678Z,1.20
2019-05-10T16:26:22.808Z,1.80
2019-05-10T16:29:02.016Z,1.60
2019-05-10T16:31:26.762Z,2.00
2019-05-10T16:33:57.298Z,1.80
2019-05-10T16:36:28.364Z,1.70
2019-05-10T16:39:01.635Z,1.95
2019-05-10T16:41:32.311Z,2.02
2019-05-10T16:44:02.903Z,1.80
2019-05-10T16:46:33.664Z,1.85
2019-05-10T16:49:10.032Z,2.20
2019-05-10T16:51:37.001Z,1.60
2019-05-10T16:54:10.469Z,1.90
2019-05-10T16:56:39.852Z,1.77
2019-05-10T16:59:10.338Z,1.95
2019-05-10T17:01:40.949Z,2.00
2019-05-10T17:04:11.462Z,1.80
2019-05-10T17:06:42.036Z,1.80
2019-05-10T17:09:18.139Z,1.70
2019-05-10T17:11:46.793Z,1.62
2019-05-10T17:14:17.903Z,1.70
2019-05-10T17:16:50.203Z,2.00
2019-05-10T17:19:21.226Z,1.50
2019-05-10T17:21:51.677Z,1.72
2019-05-10T17:24:23.850Z,1.57
2019-05-10T17:26:54.465Z,1.90
2019-05-10T17:29:25.146Z,1.57
2019-05-10T17:31:55.798Z,1.77
2019-05-10T17:34:29.543Z,1.80
2019-05-10T17:36:59.833Z,1.70
2019-05-10T17:39:32.218Z,1.70
2019-05-10T17:42:04.661Z,2.00
2019-05-10T17:44:35.151Z,1.60
2019-05-10T17:47:05.734Z,1.80
2019-05-10T17:49:36.362Z,2.20
2019-05-10T17:52:06.933Z,1.50
2019-05-10T17:54:39.067Z,1.70
2019-05-10T17:57:10.561Z,1.50
2019-05-10T17:59:47.065Z,1.60
2019-05-10T18:02:14.894Z,2.20
2019-05-10T18:04:45.479Z,1.70
2019-05-10T18:07:16.007Z,1.50
2019-05-10T18:09:46.576Z,1.77
2019-05-10T18:12:20.465Z,2.10
2019-05-10T18:14:50.145Z,1.90
2019-05-10T18:17:25.981Z,2.10
2019-05-10T18:19:56.630Z,1.85
2019-05-10T18:22:26.284Z,2.20
2019-05-10T18:24:56.871Z,2.00
2019-05-10T18:27:27.400Z,2.10
2019-05-10T18:29:57.953Z,1.82
2019-05-10T18:32:29.360Z,1.90
2019-05-10T18:35:00.892Z,1.80
2019-05-10T18:37:31.434Z,2.30
2019-05-10T18:40:01.989Z,2.42
2019-05-10T18:42:32.520Z,2.10
2019-05-10T18:45:02.963Z,2.47
2019-05-10T18:47:33.450Z,2.05
2019-05-10T18:50:04.204Z,2.58
2019-05-10T18:52:34.918Z,2.60
2019-05-10T18:55:05.851Z,2.30
2019-05-10T18:57:36.381Z,3.10
2019-05-10T19:00:08.470Z,1.90
2019-05-10T19:02:38.979Z,2.13
2019-05-10T19:05:09.811Z,2.20
2019-05-10T19:07:40.315Z,2.40
2019-05-10T19:10:11.013Z,2.22
2019-05-10T19:12:41.884Z,2.37
2019-05-10T19:15:15.499Z,2.08
2019-05-10T19:17:47.279Z,2.50
2019-05-10T19:20:18.507Z,2.35
2019-05-10T19:22:49.250Z,2.60
2019-05-10T19:25:19.852Z,2.45
2019-05-10T19:27:51.200Z,2.35
2019-05-10T19:30:22.581Z,3.15
2019-05-10T19:32:56.329Z,2.40
2019-05-10T19:35:29.769Z,2.72
2019-05-10T19:37:58.064Z,2.90
2019-05-10T19:40:28.665Z,2.42
2019-05-10T19:42:59.265Z,2.90
2019-05-10T19:45:31.161Z,3.15
2019-05-10T19:48:02.034Z,3.10
2019-05-10T19:50:33.152Z,2.80
2019-05-10T19:53:05.495Z,3.00
2019-05-10T19:55:36.355Z,2.80
2019-05-10T19:58:07.407Z,2.70
2019-05-10T20:00:38.135Z,2.42
2019-05-10T20:03:08.696Z,2.75
2019-05-10T20:05:39.257Z,2.60
2019-05-10T20:08:09.768Z,2.70
2019-05-10T20:10:40.370Z,2.42
2019-05-10T20:13:11.088Z,18.25
2019-05-10T20:15:41.623Z,3.10
2019-05-10T20:18:12.140Z,2.70
2019-05-10T20:20:46.609Z,2.55
2019-05-10T20:23:19.314Z,3.15
2019-05-10T20:25:51.706Z,3.05
2019-05-10T20:28:23.101Z,2.50
2019-05-10T20:30:54.450Z,2.70
2019-05-10T20:33:47.320Z,2.77
2019-05-10T20:36:17.870Z,2.50
2019-05-10T20:38:48.370Z,2.75
2019-05-10T20:41:19.086Z,2.60
2019-05-10T20:43:49.587Z,2.90
2019-05-10T20:46:20.228Z,2.62
2019-05-10T20:48:51.026Z,2.27
2019-05-10T20:51:22.297Z,2.60
2019-05-10T20:53:52.955Z,2.90
2019-05-10T20:56:23.519Z,2.83
2019-05-10T20:58:54.043Z,3.00
2019-05-10T21:01:28.099Z,3.00
2019-05-10T21:03:58.651Z,3.20
2019-05-10T21:06:29.177Z,3.90
2019-05-10T21:08:59.737Z,3.17
2019-05-10T21:11:30.382Z,3.50
2019-05-10T21:14:00.942Z,3.42
2019-05-10T21:16:31.496Z,3.30
2019-05-10T21:19:02.058Z,5.80
2019-05-10T21:21:32.542Z,3.77
2019-05-10T21:24:03.043Z,3.10
2019-05-10T21:26:33.762Z,3.30
2019-05-10T21:29:04.290Z,2.70
2019-05-10T21:31:34.713Z,2.30
2019-05-10T21:34:09.636Z,2.25
2019-05-10T21:36:37.556Z,2.27
2019-05-10T21:39:08.358Z,2.60
2019-05-10T21:41:38.949Z,2.67
2019-05-10T21:44:09.482Z,3.27
2019-05-10T21:46:40.066Z,3.40
2019-05-10T21:49:10.560Z,3.40
2019-05-10T21:51:41.054Z,3.45
2019-05-10T21:54:11.476Z,3.75
2019-05-10T21:56:41.992Z,3.50
2019-05-10T21:59:12.535Z,2.90
2019-05-10T22:01:43.159Z,2.80
2019-05-10T22:04:13.664Z,2.70
2019-05-10T22:06:44.159Z,3.50
2019-05-10T22:09:14.697Z,3.75
2019-05-10T22:11:45.212Z,3.90
2019-05-10T22:14:15.749Z,4.20
2019-05-10T22:16:46.255Z,4.20
2019-05-10T22:19:16.768Z,3.30
2019-05-10T22:21:47.257Z,3.10
2019-05-10T22:24:17.764Z,3.37
2019-05-10T22:26:48.299Z,3.50
2019-05-10T22:29:18.888Z,3.35
2019-05-10T22:31:49.409Z,2.65
2019-05-10T22:34:19.909Z,3.40
2019-05-10T22:36:50.418Z,4.40
2019-05-10T22:39:20.937Z,4.63
2019-05-10T22:41:53.187Z,5.00
2019-05-10T22:44:23.864Z,5.20
2019-05-10T22:46:54.370Z,5.25
2019-05-10T22:49:24.923Z,5.03
2019-05-10T22:51:55.509Z,3.30
2019-05-10T22:54:26.009Z,5.00
2019-05-10T22:56:56.414Z,5.15
2019-05-10T22:59:26.950Z,5.15
2019-05-10T23:01:57.314Z,4.70
2019-05-10T23:04:27.875Z,4.97
2019-05-10T23:06:58.341Z,4.87
2019-05-10T23:09:28.809Z,5.20
2019-05-10T23:11:59.336Z,4.95
2019-05-10T23:14:29.827Z,4.78
2019-05-10T23:17:00.365Z,4.30
2019-05-10T23:19:30.894Z,4.50
2019-05-10T23:22:01.400Z,4.50
2019-05-10T23:24:39.229Z,4.13
2019-05-10T23:27:10.345Z,4.03
2019-05-10T23:29:40.855Z,3.90
2019-05-10T23:32:11.323Z,4.50
2019-05-10T23:34:41.791Z,3.70
2019-05-10T23:37:12.285Z,3.10
2019-05-10T23:39:42.899Z,3.90
2019-05-10T23:42:13.418Z,4.10
2019-05-10T23:44:43.983Z,4.40
2019-05-10T23:47:14.575Z,3.98
2019-05-10T23:49:45.101Z,4.78
2019-05-10T23:52:15.566Z,5.12
2019-05-10T23:54:46.231Z,5.03
2019-05-10T23:57:16.710Z,4.92
2019-05-10T23:59:47.180Z,4.10
